Terminal Aerodrome Forecast
Issued by NWS

Home | Current Version | Previous Version | Text Only | Print | Product List | Glossary On
Versions: 1 2 3 4 5 6 7 8 9 10 11 12 13 14 15 16 17 18 19 20 21 22 23 24 25 26 27 28 29 30 31 32 33 34 35 36 37 38 39 40 41 42 43 44 45 46 47 48 49 50
304
FTUS45 KGJT 130912 AAO
TAFASE
TAF AMD
KASE 130912Z 1309/1406 00000KT 5SM -SN BR FEW017 BKN024 OVC080
     FM131100 32005KT 1/2SM SN BKN010
     FM131200 32005KT 2SM -SHSN BR SCT015 BKN030
     FM131900 31010G20KT 5SM -SHSN SCT009 BKN030
     FM140000 VRB04KT 2SM -SHSN SCT012 BKN035=

USA.gov is the U.S. government's official web portal to all federal, state and local government web resources and services.